Marlton, NJ (08053)

10:39 AM EDT on July 07, 2015 (GMT -0400)
Eagle Hill | | Change Station
CLOSE
Current Station
Personal Weather Station
Location: Cherry Hill, NJ
Elevation: 135 ft
Nearby Weather Stations

Elev 135 ft 39.87 °N, 74.96 °W | Updated 1 second ago

Partly Cloudy
Partly Cloudy
84.9 °F
Feels Like 90 °F
N
2.9
Wind Variable Wind from West
Gusts 4.9 mph

Today
High -- | Low -- °F
--% Chance of Precip.
Yesterday
High -- | Low -- °F
Precip. -- in
5:38 AM 8:30 PM
Waning Gibbous, 64% visible
Pressure 30.04 in
Visibility 10.0 miles
Clouds Mostly Cloudy 2500 ft
Mostly Cloudy 3300 ft
Heat Index 90 °F
Dew Point 70 °F
Humidity 62%
Rainfall 0.00 in
Snow Depth Not available.
UV 4 out of 12
Pollen 1.50 out of 12
Air Quality Not available.
Flu Activity Not available.
SPECI KVAY 071429Z AUTO VRB04KT 10SM BKN025 BKN033 28/22 A3004 RMK AO2 T02780222

More Conditions Fewer Conditions

Pressure 30.04 in
Visibility 10.0 miles
Clouds Mostly Cloudy 2500 ft
Mostly Cloudy 3300 ft
Heat Index 90 °F
Dew Point 70 °F
Humidity 62%
Rainfall 0.00 in
Snow Depth Not available.
UV 4 out of 12
Pollen 1.50 out of 12
Air Quality Not available.
Flu Activity Not available.
SPECI KVAY 071429Z AUTO VRB04KT 10SM BKN025 BKN033 28/22 A3004 RMK AO2 T02780222

More Conditions Fewer Conditions

10-Day Weather Forecast

×

Almanac

Astronomy

Jul. 07, 2015 Rise Set
Actual Time
Civil Twilight
Nautical Twilight
Astronomical Twilight
Moon
Length of Visible Light
Length of Day
Tomorrow will be .
, % of the Moon is Illuminated

Today's Extremes

State Highs State Lows

Community

WunderPhotos

Upload Photos

1,835,810 photos uploaded!

WunderBlogs® & News

Nearby

Air Quality

  Air Quality AQ Index Pollutant
Not available.

Snow Depth

Station Depth Elevation

Earthquake Activity

City Distance Mag. Time & Date
Minimum magnitude displayed is 2.5.

Coastal Water Temperatures

Place Temperature

Stations

Nearby Weather Stations

Station Location Temp. Windchill Dew Point Humidity Wind Precip. Elev Updated Type